createdAt,value
2017-04-26T00:00:00.035Z,0
2017-04-26T00:01:02.195Z,0
2017-04-26T00:02:04.196Z,0
2017-04-26T00:03:06.003Z,0
2017-04-26T00:04:07.798Z,0
2017-04-26T00:05:09.595Z,0
2017-04-26T00:06:11.389Z,0
2017-04-26T00:07:13.179Z,0
2017-04-26T00:08:14.983Z,0
2017-04-26T00:09:17.109Z,0
2017-04-26T00:10:18.945Z,0
2017-04-26T00:11:20.736Z,0
2017-04-26T00:12:22.533Z,0
2017-04-26T00:13:24.663Z,0
2017-04-26T00:14:27.461Z,0
2017-04-26T00:15:29.314Z,0
2017-04-26T00:16:31.308Z,0
2017-04-26T00:17:33.118Z,0
2017-04-26T00:18:34.926Z,0
2017-04-26T00:19:36.718Z,0
2017-04-26T00:20:38.516Z,0
2017-04-26T00:21:40.313Z,0
2017-04-26T00:22:42.470Z,0
2017-04-26T00:23:44.282Z,0
2017-04-26T00:24:46.082Z,0
2017-04-26T00:25:47.885Z,0
2017-04-26T00:26:49.676Z,0
2017-04-26T00:27:51.478Z,0
2017-04-26T00:28:53.297Z,0
2017-04-26T00:29:55.093Z,0
2017-04-26T00:30:57.263Z,0
2017-04-26T00:31:59.055Z,0
2017-04-26T00:33:01.216Z,0
2017-04-26T00:34:03.023Z,0
2017-04-26T00:35:04.838Z,0
2017-04-26T00:36:07.008Z,0
2017-04-26T00:37:08.828Z,0
2017-04-26T00:38:10.621Z,0
2017-04-26T00:39:13.090Z,0
2017-04-26T00:40:15.222Z,0
2017-04-26T00:41:17.358Z,0
2017-04-26T00:42:19.168Z,0
2017-04-26T00:43:20.984Z,0
2017-04-26T00:44:22.798Z,0
2017-04-26T00:45:24.699Z,0
2017-04-26T00:46:26.524Z,0
2017-04-26T00:47:28.354Z,0
2017-04-26T00:48:30.152Z,0
2017-04-26T00:49:31.963Z,0
2017-04-26T00:50:33.755Z,0
2017-04-26T00:51:35.550Z,0
2017-04-26T00:52:37.349Z,0
2017-04-26T00:53:39.478Z,0
2017-04-26T00:54:41.310Z,0
2017-04-26T00:55:43.109Z,0
2017-04-26T00:56:44.921Z,0
2017-04-26T00:57:46.721Z,0
2017-04-26T00:58:48.515Z,0
2017-04-26T00:59:50.316Z,0
2017-04-26T01:00:52.110Z,0
2017-04-26T01:01:53.908Z,0
2017-04-26T01:02:55.701Z,0
2017-04-26T01:03:57.496Z,0
2017-04-26T01:04:59.295Z,0
2017-04-26T01:06:01.089Z,0
2017-04-26T01:07:02.887Z,0
2017-04-26T01:08:04.681Z,0
2017-04-26T01:09:06.956Z,0
2017-04-26T01:10:08.958Z,0
2017-04-26T01:11:11.089Z,0
2017-04-26T01:12:12.945Z,0
2017-04-26T01:13:14.938Z,0
2017-04-26T01:14:17.133Z,0
2017-04-26T01:15:18.990Z,0
2017-04-26T01:16:21.186Z,0
2017-04-26T01:17:22.984Z,0
2017-04-26T01:18:24.788Z,0
2017-04-26T01:19:26.580Z,0
2017-04-26T01:20:28.377Z,0
2017-04-26T01:21:30.170Z,0
2017-04-26T01:22:31.997Z,0
2017-04-26T01:23:33.789Z,0
2017-04-26T01:24:35.581Z,0
2017-04-26T01:25:37.378Z,0
2017-04-26T01:26:39.173Z,0
2017-04-26T01:27:40.965Z,0
2017-04-26T01:28:42.787Z,0
2017-04-26T01:29:44.920Z,0
2017-04-26T01:30:46.723Z,0
2017-04-26T01:31:48.517Z,0
2017-04-26T01:32:50.310Z,0
2017-04-26T01:33:52.127Z,0
2017-04-26T01:34:53.927Z,0
2017-04-26T01:35:56.074Z,0
2017-04-26T01:36:57.892Z,0
2017-04-26T01:37:59.699Z,0
2017-04-26T01:39:01.490Z,0
2017-04-26T01:40:03.635Z,0
2017-04-26T01:41:05.771Z,0
2017-04-26T01:42:07.558Z,0
2017-04-26T01:43:09.385Z,0
2017-04-26T01:44:11.514Z,0
2017-04-26T01:45:13.311Z,0
2017-04-26T01:46:15.103Z,0
2017-04-26T01:47:16.897Z,0
2017-04-26T01:48:18.691Z,0
2017-04-26T01:49:20.489Z,0
2017-04-26T01:50:22.656Z,0
2017-04-26T01:51:24.450Z,0
2017-04-26T01:52:26.242Z,0
2017-04-26T01:53:28.037Z,0
2017-04-26T01:54:30.176Z,0
2017-04-26T01:55:31.964Z,0
2017-04-26T01:56:33.766Z,0
2017-04-26T01:57:35.896Z,0
2017-04-26T01:58:38.035Z,0
2017-04-26T01:59:39.827Z,0
2017-04-26T02:00:41.621Z,0
2017-04-26T02:01:43.422Z,0
2017-04-26T02:02:45.217Z,0
2017-04-26T02:03:47.343Z,0
2017-04-26T02:04:49.139Z,0
2017-04-26T02:05:50.934Z,0
2017-04-26T02:06:52.729Z,0
2017-04-26T02:07:54.525Z,0
2017-04-26T02:08:56.314Z,0
2017-04-26T02:09:58.444Z,0
2017-04-26T02:11:00.585Z,0
2017-04-26T02:12:02.389Z,0
2017-04-26T02:13:04.545Z,0
2017-04-26T02:14:06.342Z,0
2017-04-26T02:15:08.138Z,0
2017-04-26T02:16:09.928Z,0
2017-04-26T02:17:11.725Z,0
2017-04-26T02:18:13.524Z,0
2017-04-26T02:19:15.319Z,0
2017-04-26T02:20:17.459Z,0
2017-04-26T02:21:19.252Z,0
2017-04-26T02:22:21.381Z,0
2017-04-26T02:23:23.176Z,0
2017-04-26T02:24:25.321Z,0
2017-04-26T02:25:27.451Z,0
2017-04-26T02:26:29.248Z,0
2017-04-26T02:27:31.395Z,0
2017-04-26T02:28:33.188Z,0
2017-04-26T02:29:34.984Z,0
2017-04-26T02:30:37.116Z,0
2017-04-26T02:31:38.905Z,0
2017-04-26T02:32:40.702Z,0
2017-04-26T02:33:42.507Z,0
2017-04-26T02:34:44.985Z,0
2017-04-26T02:35:46.781Z,0
2017-04-26T02:36:48.576Z,0
2017-04-26T02:37:50.372Z,0
2017-04-26T02:38:52.168Z,0
2017-04-26T02:39:54.308Z,0
2017-04-26T02:40:56.102Z,0
2017-04-26T02:41:57.897Z,0
2017-04-26T02:42:59.690Z,0
2017-04-26T02:44:01.504Z,0
2017-04-26T02:45:03.297Z,0
2017-04-26T02:46:05.092Z,0
2017-04-26T02:47:06.882Z,0
2017-04-26T02:48:08.676Z,0
2017-04-26T02:49:10.811Z,0
2017-04-26T02:50:12.606Z,0
2017-04-26T02:51:14.403Z,0
2017-04-26T02:52:16.195Z,0
2017-04-26T02:53:17.996Z,0
2017-04-26T02:54:19.785Z,0
2017-04-26T02:55:21.577Z,0
2017-04-26T02:56:23.365Z,0
2017-04-26T02:57:25.162Z,0
2017-04-26T02:58:26.954Z,0
2017-04-26T02:59:29.423Z,0
2017-04-26T03:00:31.211Z,0
2017-04-26T03:01:33.010Z,0
2017-04-26T03:02:34.802Z,0
2017-04-26T03:03:36.596Z,0
2017-04-26T03:04:38.735Z,0
2017-04-26T03:05:40.529Z,1
2017-04-26T03:06:42.322Z,1
2017-04-26T03:07:44.116Z,1
2017-04-26T03:08:45.909Z,1
2017-04-26T03:09:47.704Z,1
2017-04-26T03:10:49.498Z,2
2017-04-26T03:11:51.293Z,2
2017-04-26T03:12:53.083Z,0
2017-04-26T03:13:54.881Z,1
2017-04-26T03:14:57.015Z,1
2017-04-26T03:15:58.811Z,3
2017-04-26T03:17:00.606Z,3
2017-04-26T03:18:02.397Z,3
2017-04-26T03:19:04.194Z,3
2017-04-26T03:20:06.328Z,4
2017-04-26T03:21:08.118Z,4
2017-04-26T03:22:09.913Z,6
2017-04-26T03:23:12.047Z,6
2017-04-26T03:24:13.843Z,6
2017-04-26T03:25:15.989Z,7
2017-04-26T03:26:17.782Z,8
2017-04-26T03:27:19.576Z,11
2017-04-26T03:28:21.370Z,12
2017-04-26T03:29:24.193Z,15
2017-04-26T03:30:25.992Z,17
2017-04-26T03:31:27.783Z,20
2017-04-26T03:32:29.914Z,23
2017-04-26T03:33:31.704Z,25
2017-04-26T03:34:33.505Z,29
2017-04-26T03:35:35.295Z,33
2017-04-26T03:36:37.089Z,37
2017-04-26T03:37:38.887Z,43
2017-04-26T03:38:40.683Z,47
2017-04-26T03:39:42.477Z,55
2017-04-26T03:40:44.275Z,62
2017-04-26T03:41:46.066Z,69
2017-04-26T03:42:47.879Z,77
2017-04-26T03:43:50.013Z,87
2017-04-26T03:44:51.803Z,97
2017-04-26T03:45:53.596Z,106
2017-04-26T03:46:55.389Z,117
2017-04-26T03:47:57.185Z,128
2017-04-26T03:48:59.319Z,142
2017-04-26T03:50:01.116Z,154
2017-04-26T03:51:02.908Z,169
2017-04-26T03:52:04.704Z,184
2017-04-26T03:53:06.502Z,198
2017-04-26T03:54:08.288Z,212
2017-04-26T03:55:10.083Z,227
2017-04-26T03:56:11.877Z,243
2017-04-26T03:57:13.688Z,260
2017-04-26T03:58:15.812Z,279
2017-04-26T03:59:17.603Z,298
2017-04-26T04:00:19.733Z,317
2017-04-26T04:01:21.525Z,334
2017-04-26T04:02:23.321Z,354
2017-04-26T04:03:25.114Z,374
2017-04-26T04:04:26.912Z,393
2017-04-26T04:05:28.707Z,414
2017-04-26T04:06:30.502Z,434
2017-04-26T04:07:32.297Z,454
2017-04-26T04:08:34.096Z,475
2017-04-26T04:09:35.889Z,497
2017-04-26T04:10:37.685Z,516
2017-04-26T04:11:39.477Z,537
2017-04-26T04:12:41.272Z,558
2017-04-26T04:13:43.067Z,580
2017-04-26T04:14:45.207Z,602
2017-04-26T04:15:47.005Z,623
2017-04-26T04:16:48.797Z,643
2017-04-26T04:17:50.592Z,663
2017-04-26T04:18:52.722Z,686
2017-04-26T04:19:54.521Z,710
2017-04-26T04:20:56.662Z,725
2017-04-26T04:21:58.457Z,745
2017-04-26T04:23:00.260Z,765
2017-04-26T04:24:02.726Z,786
2017-04-26T04:25:04.523Z,804
2017-04-26T04:26:06.316Z,826
2017-04-26T04:27:08.108Z,846
2017-04-26T04:28:09.902Z,869
2017-04-26T04:29:11.703Z,887
2017-04-26T04:30:13.494Z,905
2017-04-26T04:31:15.285Z,922
2017-04-26T04:32:17.077Z,943
2017-04-26T04:33:18.896Z,964
2017-04-26T04:34:20.689Z,982
2017-04-26T04:35:22.823Z,1001
2017-04-26T04:36:24.614Z,1020
2017-04-26T04:37:26.425Z,1041
2017-04-26T04:38:28.221Z,1058
2017-04-26T04:39:30.017Z,1078
2017-04-26T04:40:32.156Z,1097
2017-04-26T04:41:33.954Z,1115
2017-04-26T04:42:35.750Z,1133
2017-04-26T04:43:37.543Z,1149
2017-04-26T04:44:40.027Z,1168
2017-04-26T04:45:42.158Z,1184
2017-04-26T04:46:43.953Z,1199
2017-04-26T04:47:46.103Z,1217
2017-04-26T04:48:47.895Z,1233
2017-04-26T04:49:49.698Z,1252
2017-04-26T04:50:51.825Z,1270
2017-04-26T04:51:53.626Z,1289
2017-04-26T04:52:55.415Z,1306
2017-04-26T04:53:57.209Z,1320
2017-04-26T04:54:59.033Z,1333
2017-04-26T04:56:00.826Z,1346
2017-04-26T04:57:02.621Z,1359
2017-04-26T04:58:04.712Z,1375
2017-04-26T04:59:06.517Z,1392
2017-04-26T05:00:08.308Z,1399
2017-04-26T05:01:10.105Z,1411
2017-04-26T05:02:11.925Z,1424
2017-04-26T05:03:13.722Z,1443
2017-04-26T05:04:15.518Z,1460
2017-04-26T05:05:17.310Z,1476
2017-04-26T05:06:19.109Z,1488
2017-04-26T05:07:20.906Z,1501
2017-04-26T05:08:23.055Z,1515
2017-04-26T05:09:24.880Z,1529
2017-04-26T05:10:26.674Z,1539
2017-04-26T05:11:28.467Z,1550
2017-04-26T05:12:30.264Z,1557
2017-04-26T05:13:32.055Z,1578
2017-04-26T05:14:33.851Z,1593
2017-04-26T05:15:35.643Z,1609
2017-04-26T05:16:37.440Z,1626
2017-04-26T05:17:39.238Z,1645
2017-04-26T05:18:41.369Z,1668
2017-04-26T05:19:43.848Z,1686
2017-04-26T05:20:45.642Z,1675
2017-04-26T05:21:47.429Z,1691
2017-04-26T05:22:49.224Z,1714
2017-04-26T05:23:51.019Z,1741
2017-04-26T05:24:52.814Z,1738
2017-04-26T05:25:54.950Z,1745
2017-04-26T05:26:56.750Z,1757
2017-04-26T05:27:58.554Z,1773
2017-04-26T05:29:00.349Z,1786
2017-04-26T05:30:02.482Z,1787
2017-04-26T05:31:04.291Z,1791
2017-04-26T05:32:06.776Z,1805
2017-04-26T05:33:08.914Z,1808
2017-04-26T05:34:10.711Z,1819
2017-04-26T05:35:12.838Z,1823
2017-04-26T05:36:14.634Z,1829
2017-04-26T05:37:16.760Z,1838
2017-04-26T05:38:18.558Z,1878
2017-04-26T05:39:20.686Z,1879
2017-04-26T05:40:23.168Z,1898
2017-04-26T05:41:25.298Z,1901
2017-04-26T05:42:27.099Z,1906
2017-04-26T05:43:28.894Z,1913
2017-04-26T05:44:30.692Z,1926
2017-04-26T05:45:32.492Z,1933
2017-04-26T05:46:34.285Z,1944
2017-04-26T05:47:36.080Z,1950
2017-04-26T05:48:38.225Z,1960
2017-04-26T05:49:40.029Z,1977
2017-04-26T05:50:41.824Z,1987
2017-04-26T05:51:43.615Z,2007
2017-04-26T05:52:45.405Z,2009
2017-04-26T05:53:47.202Z,2021
2017-04-26T05:54:48.995Z,2032
2017-04-26T05:55:50.791Z,2035
2017-04-26T05:56:52.589Z,2047
2017-04-26T05:57:54.415Z,2048
2017-04-26T05:58:56.220Z,2064
2017-04-26T05:59:58.359Z,2065
2017-04-26T06:01:00.156Z,2075
2017-04-26T06:02:01.949Z,2088
2017-04-26T06:03:03.749Z,2099
2017-04-26T06:04:05.549Z,2100
2017-04-26T06:05:07.347Z,2113
2017-04-26T06:06:09.146Z,2129
2017-04-26T06:07:10.943Z,2143
2017-04-26T06:08:12.739Z,2169
2017-04-26T06:09:14.536Z,2191
2017-04-26T06:10:16.331Z,2208
2017-04-26T06:11:18.127Z,2214
2017-04-26T06:12:19.924Z,2213
2017-04-26T06:13:21.721Z,2199
2017-04-26T06:14:23.520Z,2209
2017-04-26T06:15:25.320Z,2224
2017-04-26T06:16:27.120Z,2247
2017-04-26T06:17:28.919Z,2274
2017-04-26T06:18:30.770Z,2319
2017-04-26T06:19:32.847Z,2349
2017-04-26T06:20:34.872Z,2341
2017-04-26T06:21:36.670Z,2327
2017-04-26T06:22:38.785Z,2316
2017-04-26T06:23:40.769Z,2326
2017-04-26T06:24:43.269Z,2301
2017-04-26T06:25:45.069Z,2302
2017-04-26T06:26:46.874Z,2322
2017-04-26T06:27:48.671Z,2340
2017-04-26T06:28:50.472Z,2381
2017-04-26T06:29:52.613Z,2403
2017-04-26T06:30:54.410Z,2413
2017-04-26T06:31:56.206Z,2424
2017-04-26T06:32:58.075Z,2431
2017-04-26T06:34:00.014Z,2446
2017-04-26T06:35:02.113Z,2464
2017-04-26T06:36:04.005Z,2474
2017-04-26T06:37:06.070Z,2484
2017-04-26T06:38:08.326Z,2495
2017-04-26T06:39:10.290Z,2521
2017-04-26T06:40:12.434Z,2542
2017-04-26T06:41:14.235Z,2556
2017-04-26T06:42:16.034Z,2566
2017-04-26T06:43:17.827Z,2587
2017-04-26T06:44:20.312Z,2574
2017-04-26T06:45:22.113Z,2543
2017-04-26T06:46:23.915Z,2516
2017-04-26T06:47:25.706Z,2496
2017-04-26T06:48:27.508Z,2497
2017-04-26T06:49:29.307Z,2531
2017-04-26T06:50:31.108Z,2563
2017-04-26T06:51:32.908Z,2579
2017-04-26T06:52:34.707Z,2598
2017-04-26T06:53:36.507Z,2596
2017-04-26T06:54:38.307Z,2598
2017-04-26T06:55:40.141Z,2668
2017-04-26T06:56:41.939Z,2716
2017-04-26T06:57:44.090Z,2716
2017-04-26T06:58:46.238Z,2740
2017-04-26T06:59:48.041Z,2740
2017-04-26T07:00:49.849Z,2759
2017-04-26T07:01:51.645Z,2798
2017-04-26T07:02:53.444Z,2830
2017-04-26T07:03:55.242Z,2822
2017-04-26T07:04:57.040Z,2837
2017-04-26T07:05:58.843Z,2837
2017-04-26T07:07:00.644Z,2813
2017-04-26T07:08:02.448Z,2837
2017-04-26T07:09:04.240Z,2905
2017-04-26T07:10:06.045Z,2969
2017-04-26T07:11:07.842Z,2997
2017-04-26T07:12:09.642Z,3190
2017-04-26T07:13:11.442Z,3362
2017-04-26T07:14:13.236Z,3401
2017-04-26T07:15:15.055Z,3881
2017-04-26T07:16:16.886Z,4299
2017-04-26T07:17:18.698Z,3352
2017-04-26T07:18:20.499Z,3305
2017-04-26T07:19:22.318Z,3323
2017-04-26T07:20:24.444Z,3329
2017-04-26T07:21:26.245Z,3749
2017-04-26T07:22:28.043Z,4686
2017-04-26T07:23:29.845Z,4180
2017-04-26T07:24:31.650Z,4211
2017-04-26T07:25:33.453Z,3604
2017-04-26T07:26:35.252Z,3632
2017-04-26T07:27:37.054Z,4326
2017-04-26T07:28:38.846Z,5023
2017-04-26T07:29:40.650Z,5492
2017-04-26T07:30:42.455Z,4405
2017-04-26T07:31:44.602Z,4572
2017-04-26T07:32:46.402Z,4350
2017-04-26T07:33:48.206Z,3760
2017-04-26T07:34:50.343Z,3679
2017-04-26T07:35:52.477Z,3681
2017-04-26T07:36:54.275Z,3591
2017-04-26T07:37:56.076Z,3418
2017-04-26T07:38:58.215Z,3524
2017-04-26T07:40:00.016Z,3706
2017-04-26T07:41:01.819Z,3847
2017-04-26T07:42:03.613Z,3602
2017-04-26T07:43:05.771Z,3666
2017-04-26T07:44:07.572Z,4003
2017-04-26T07:45:09.376Z,3976
2017-04-26T07:46:11.178Z,3834
2017-04-26T07:47:12.982Z,3781
2017-04-26T07:48:14.786Z,3744
2017-04-26T07:49:16.593Z,3769
2017-04-26T07:50:18.406Z,3713
2017-04-26T07:51:20.215Z,3611
2017-04-26T07:52:22.352Z,3574
2017-04-26T07:53:24.158Z,3600
2017-04-26T07:54:25.958Z,3530
2017-04-26T07:55:27.765Z,3499
2017-04-26T07:56:29.568Z,3499
2017-04-26T07:57:31.369Z,3491
2017-04-26T07:58:33.172Z,3482
2017-04-26T07:59:34.975Z,3499
2017-04-26T08:00:36.779Z,3530
2017-04-26T08:01:38.579Z,3548
2017-04-26T08:02:40.383Z,3541
2017-04-26T08:03:42.182Z,3550
2017-04-26T08:04:43.983Z,3550
2017-04-26T08:05:45.794Z,3590
2017-04-26T08:06:47.596Z,3612
2017-04-26T08:07:49.401Z,3636
2017-04-26T08:08:51.201Z,3667
2017-04-26T08:09:53.006Z,3755
2017-04-26T08:10:54.805Z,3825
2017-04-26T08:11:56.608Z,3864
2017-04-26T08:12:58.408Z,3934
2017-04-26T08:14:00.214Z,4020
2017-04-26T08:15:02.022Z,4069
2017-04-26T08:16:04.168Z,4212
2017-04-26T08:17:05.972Z,4278
2017-04-26T08:18:07.780Z,4243
2017-04-26T08:19:09.605Z,4164
2017-04-26T08:20:11.404Z,4021
2017-04-26T08:21:13.545Z,4045
2017-04-26T08:22:15.347Z,4193
2017-04-26T08:23:17.148Z,4287
2017-04-26T08:24:18.951Z,4271
2017-04-26T08:25:20.756Z,4309
2017-04-26T08:26:22.551Z,4387
2017-04-26T08:27:24.360Z,4480
2017-04-26T08:28:26.166Z,4781
2017-04-26T08:29:27.970Z,5054
2017-04-26T08:30:29.769Z,5159
2017-04-26T08:31:31.575Z,5151
2017-04-26T08:32:33.377Z,5096
2017-04-26T08:33:35.180Z,5133
2017-04-26T08:34:36.987Z,5043
2017-04-26T08:35:38.788Z,4743
2017-04-26T08:36:40.595Z,4783
2017-04-26T08:37:42.400Z,4849
2017-04-26T08:38:44.209Z,4770
2017-04-26T08:39:46.346Z,4803
2017-04-26T08:40:48.155Z,4905
2017-04-26T08:41:50.296Z,5160
2017-04-26T08:42:52.109Z,5351
2017-04-26T08:43:53.912Z,5397
2017-04-26T08:44:55.743Z,5656
2017-04-26T08:45:57.546Z,6273
2017-04-26T08:46:59.371Z,7063
2017-04-26T08:48:01.179Z,7285
2017-04-26T08:49:02.985Z,6422
2017-04-26T08:50:05.123Z,5399
2017-04-26T08:51:06.938Z,5884
2017-04-26T08:52:08.741Z,7061
2017-04-26T08:53:10.546Z,8429
2017-04-26T08:54:12.344Z,9271
2017-04-26T08:55:14.153Z,8863
2017-04-26T08:56:15.955Z,7637
2017-04-26T08:57:17.759Z,6591
2017-04-26T08:58:19.904Z,5863
2017-04-26T08:59:21.706Z,5689
2017-04-26T09:00:23.515Z,6525
2017-04-26T09:01:25.656Z,6824
2017-04-26T09:02:27.460Z,7077
2017-04-26T09:03:29.263Z,7172
2017-04-26T09:04:31.077Z,8009
2017-04-26T09:05:32.881Z,9632
2017-04-26T09:06:34.693Z,9664
2017-04-26T09:07:36.495Z,9078
2017-04-26T09:08:38.303Z,9359
2017-04-26T09:09:40.111Z,10099
2017-04-26T09:10:41.936Z,9529
2017-04-26T09:11:43.750Z,9505
2017-04-26T09:12:45.899Z,9368
2017-04-26T09:13:47.703Z,9944
2017-04-26T09:14:49.851Z,10824
2017-04-26T09:15:51.651Z,11587
2017-04-26T09:16:53.458Z,11736
2017-04-26T09:17:55.263Z,11155
2017-04-26T09:18:57.412Z,11709
2017-04-26T09:19:59.217Z,11025
2017-04-26T09:21:01.028Z,11333
2017-04-26T09:22:02.861Z,10232
2017-04-26T09:23:04.673Z,9185
2017-04-26T09:24:06.485Z,9151
2017-04-26T09:25:08.298Z,9500
2017-04-26T09:26:10.116Z,10248
2017-04-26T09:27:11.930Z,11647
2017-04-26T09:28:13.735Z,11225
2017-04-26T09:29:15.551Z,10668
2017-04-26T09:30:17.361Z,10859
2017-04-26T09:31:19.177Z,12682
2017-04-26T09:32:20.984Z,11456
2017-04-26T09:33:23.485Z,9673
2017-04-26T09:34:25.300Z,9029
2017-04-26T09:35:27.116Z,9087
2017-04-26T09:36:28.925Z,9321
2017-04-26T09:37:30.741Z,12175
2017-04-26T09:38:32.556Z,13949
2017-04-26T09:39:34.373Z,24795
2017-04-26T09:40:36.180Z,65536
2017-04-26T09:41:37.999Z,65536
2017-04-26T09:42:39.814Z,65536
2017-04-26T09:43:41.632Z,65536
2017-04-26T09:44:43.441Z,65536
2017-04-26T09:45:45.251Z,65536
2017-04-26T09:46:47.064Z,65536
2017-04-26T09:47:48.879Z,65536
2017-04-26T09:48:50.689Z,65536
2017-04-26T09:49:52.502Z,65536
2017-04-26T09:50:54.327Z,65536
2017-04-26T09:51:56.143Z,65536
2017-04-26T09:52:57.963Z,10720
2017-04-26T09:53:59.778Z,9696
2017-04-26T09:55:01.593Z,9226
2017-04-26T09:56:03.410Z,8761
2017-04-26T09:57:05.236Z,8787
2017-04-26T09:58:07.050Z,9257
2017-04-26T09:59:08.866Z,9534
2017-04-26T10:00:10.684Z,8833
2017-04-26T10:01:12.502Z,7702
2017-04-26T10:02:14.309Z,7588
2017-04-26T10:03:16.148Z,8293
2017-04-26T10:04:17.964Z,8682
2017-04-26T10:05:19.780Z,65536
2017-04-26T10:06:21.594Z,10862
2017-04-26T10:07:23.742Z,8803
2017-04-26T10:08:25.562Z,9106
2017-04-26T10:09:27.380Z,12178
2017-04-26T10:10:29.545Z,65536
2017-04-26T10:11:31.696Z,65536
2017-04-26T10:12:33.860Z,65536
2017-04-26T10:13:35.665Z,65536
2017-04-26T10:14:37.478Z,65536
2017-04-26T10:16:09.734Z,65536
2017-04-26T10:17:11.550Z,65536
2017-04-26T10:18:13.357Z,65536
2017-04-26T10:19:15.173Z,65536
2017-04-26T10:20:16.982Z,65536
2017-04-26T10:21:18.797Z,65536
2017-04-26T10:22:20.612Z,65536
2017-04-26T10:23:22.428Z,65536
2017-04-26T10:24:24.243Z,65536
2017-04-26T10:25:26.063Z,65536
2017-04-26T10:26:27.879Z,65536
2017-04-26T10:27:30.032Z,65536
2017-04-26T10:28:31.848Z,65536
2017-04-26T10:29:49.312Z,65536
2017-04-26T10:30:51.127Z,65536
2017-04-26T10:32:04.740Z,65536
2017-04-26T10:33:06.561Z,65536
2017-04-26T10:34:08.380Z,65536
2017-04-26T10:35:10.201Z,65536
2017-04-26T10:36:12.058Z,65536
2017-04-26T10:37:14.181Z,65536
2017-04-26T10:38:15.997Z,42264
2017-04-26T10:39:17.815Z,65536
2017-04-26T10:40:19.627Z,36428
2017-04-26T10:41:21.443Z,33094
2017-04-26T10:42:23.255Z,28763
2017-04-26T10:43:25.076Z,25049
2017-04-26T10:44:26.892Z,16633
2017-04-26T10:45:29.046Z,15534
2017-04-26T10:46:31.201Z,15600
2017-04-26T10:47:33.022Z,15693
2017-04-26T10:48:34.838Z,13968
2017-04-26T10:49:36.652Z,11850
2017-04-26T10:50:38.469Z,10089
2017-04-26T10:51:40.288Z,8735
2017-04-26T10:52:42.096Z,8028
2017-04-26T10:53:43.912Z,7253
2017-04-26T10:54:45.730Z,6654
2017-04-26T10:55:47.547Z,6197
2017-04-26T10:56:49.363Z,6150
2017-04-26T10:57:51.179Z,6119
2017-04-26T10:58:52.998Z,6014
2017-04-26T10:59:55.148Z,5919
2017-04-26T11:00:56.961Z,6080
2017-04-26T11:01:58.777Z,6384
2017-04-26T11:03:00.590Z,6760
2017-04-26T11:04:02.406Z,7366
2017-04-26T11:05:04.222Z,8283
2017-04-26T11:06:06.030Z,9649
2017-04-26T11:07:07.845Z,11473
2017-04-26T11:08:09.656Z,13552
2017-04-26T11:09:11.473Z,15747
2017-04-26T11:10:13.281Z,17685
2017-04-26T11:11:15.094Z,18283
2017-04-26T11:12:17.241Z,18363
2017-04-26T11:13:19.050Z,19500
2017-04-26T11:14:20.861Z,20864
2017-04-26T11:15:22.667Z,20760
2017-04-26T11:16:24.474Z,17299
2017-04-26T11:17:26.285Z,13885
2017-04-26T11:18:28.092Z,14325
2017-04-26T11:19:29.904Z,15521
2017-04-26T11:20:31.711Z,14370
2017-04-26T11:21:33.523Z,15659
2017-04-26T11:22:35.343Z,17858
2017-04-26T11:23:37.155Z,21620
2017-04-26T11:24:38.960Z,65536
2017-04-26T11:25:40.772Z,34357
2017-04-26T11:26:42.581Z,27544
2017-04-26T11:27:44.388Z,65536
2017-04-26T11:28:46.192Z,30464
2017-04-26T11:29:48.356Z,30209
2017-04-26T11:30:50.161Z,24052
2017-04-26T11:31:51.969Z,22429
2017-04-26T11:32:54.113Z,21452
2017-04-26T11:33:55.921Z,18825
2017-04-26T11:34:57.755Z,17518
2017-04-26T11:35:59.565Z,15946
2017-04-26T11:37:01.713Z,15493
2017-04-26T11:38:03.523Z,15670
2017-04-26T11:39:05.330Z,15620
2017-04-26T11:40:07.140Z,15306
2017-04-26T11:41:08.950Z,14813
2017-04-26T11:42:10.768Z,14246
2017-04-26T11:43:12.586Z,13398
2017-04-26T11:44:14.725Z,13125
2017-04-26T11:45:16.533Z,13257
2017-04-26T11:46:18.345Z,14061
2017-04-26T11:47:20.153Z,14059
2017-04-26T11:48:21.959Z,13774
2017-04-26T11:49:23.759Z,14126
2017-04-26T11:50:26.245Z,15333
2017-04-26T11:51:28.384Z,17024
2017-04-26T11:52:30.194Z,17799
2017-04-26T11:53:32.001Z,18677
2017-04-26T11:54:33.808Z,18885
2017-04-26T11:55:35.622Z,18116
2017-04-26T11:56:37.429Z,17517
2017-04-26T11:57:39.231Z,17516
2017-04-26T11:58:41.040Z,19711
2017-04-26T11:59:42.846Z,28224
2017-04-26T12:00:44.999Z,65536
2017-04-26T12:01:47.138Z,65536
2017-04-26T12:02:48.951Z,65536
2017-04-26T12:03:51.096Z,65536
2017-04-26T12:04:52.921Z,65536
2017-04-26T12:05:54.730Z,65536
2017-04-26T12:06:56.539Z,65536
2017-04-26T12:07:58.346Z,65536
2017-04-26T12:09:00.156Z,65536
2017-04-26T12:10:02.305Z,35548
2017-04-26T12:11:04.118Z,65536
2017-04-26T12:12:05.927Z,65536
2017-04-26T12:13:07.736Z,65536
2017-04-26T12:14:09.544Z,65536
2017-04-26T12:15:11.351Z,65536
2017-04-26T12:16:13.159Z,65536
2017-04-26T12:17:14.977Z,65536
2017-04-26T12:18:16.800Z,65536
2017-04-26T12:19:18.612Z,65536
2017-04-26T12:20:20.427Z,65536
2017-04-26T12:21:22.239Z,24607
2017-04-26T12:22:24.054Z,65536
2017-04-26T12:23:26.205Z,24343
2017-04-26T12:24:28.025Z,33659
2017-04-26T12:25:29.835Z,26529
2017-04-26T12:26:31.650Z,25774
2017-04-26T12:27:33.462Z,35974
2017-04-26T12:28:35.277Z,35663
2017-04-26T12:29:37.095Z,65536
2017-04-26T12:30:39.254Z,65536
2017-04-26T12:31:41.067Z,65536
2017-04-26T12:32:42.883Z,65536
2017-04-26T12:33:44.701Z,28975
2017-04-26T12:34:46.508Z,26721
2017-04-26T12:35:48.323Z,33532
2017-04-26T12:36:50.507Z,65536
2017-04-26T12:37:52.315Z,65536
2017-04-26T12:38:54.482Z,65536
2017-04-26T12:39:56.624Z,65536
2017-04-26T12:40:58.438Z,65536
2017-04-26T12:42:00.255Z,33447
2017-04-26T12:43:02.068Z,22826
2017-04-26T12:44:03.884Z,18662
2017-04-26T12:45:05.701Z,16338
2017-04-26T12:46:07.514Z,14412
2017-04-26T12:47:09.328Z,13107
2017-04-26T12:48:11.136Z,12084
2017-04-26T12:49:12.950Z,11368
2017-04-26T12:50:14.759Z,10961
2017-04-26T12:51:16.580Z,10926
2017-04-26T12:52:18.387Z,11167
2017-04-26T12:53:20.218Z,11711
2017-04-26T12:54:22.025Z,12603
2017-04-26T12:55:23.834Z,13182
2017-04-26T12:56:25.646Z,13449
2017-04-26T12:57:27.453Z,13357
2017-04-26T12:58:29.264Z,13162
2017-04-26T12:59:31.081Z,12936
2017-04-26T13:00:32.889Z,12464
2017-04-26T13:01:34.692Z,11518
2017-04-26T13:02:36.499Z,10334
2017-04-26T13:03:38.312Z,9627
2017-04-26T13:04:40.121Z,9423
2017-04-26T13:05:41.931Z,9474
2017-04-26T13:06:43.738Z,10020
2017-04-26T13:07:45.543Z,11018
2017-04-26T13:08:47.347Z,11688
2017-04-26T13:09:49.162Z,12275
2017-04-26T13:10:51.305Z,13055
2017-04-26T13:11:53.450Z,14668
2017-04-26T13:12:55.253Z,17415
2017-04-26T13:13:57.059Z,20297
2017-04-26T13:14:58.872Z,23068
2017-04-26T13:16:00.676Z,28719
2017-04-26T13:17:02.492Z,35441
2017-04-26T13:18:04.301Z,65536
2017-04-26T13:19:06.115Z,65536
2017-04-26T13:20:07.926Z,65536
2017-04-26T13:21:09.729Z,65536
2017-04-26T13:22:11.878Z,65536
2017-04-26T13:23:13.686Z,36955
2017-04-26T13:24:15.495Z,65536
2017-04-26T13:25:17.303Z,65536
2017-04-26T13:26:19.452Z,65536
2017-04-26T13:27:21.261Z,65536
2017-04-26T13:28:23.410Z,65536
2017-04-26T13:29:25.217Z,65536
2017-04-26T13:30:27.360Z,65536
2017-04-26T13:31:29.174Z,65536
2017-04-26T13:32:30.989Z,65536
2017-04-26T13:33:32.796Z,65536
2017-04-26T13:34:34.606Z,20161
2017-04-26T13:35:36.413Z,19841
2017-04-26T13:36:38.227Z,65536
2017-04-26T13:37:40.038Z,65536
2017-04-26T13:38:41.851Z,65536
2017-04-26T13:39:43.662Z,65536
2017-04-26T13:40:45.816Z,65536
2017-04-26T13:41:47.653Z,65536
2017-04-26T13:42:49.475Z,65536
2017-04-26T13:43:51.291Z,65536
2017-04-26T13:44:53.105Z,65536
2017-04-26T13:45:54.922Z,65536
2017-04-26T13:46:57.076Z,65536
2017-04-26T13:47:58.892Z,65536
2017-04-26T13:49:00.714Z,65536
2017-04-26T13:50:02.533Z,65536
2017-04-26T13:51:04.346Z,65536
2017-04-26T13:52:06.162Z,65536
2017-04-26T13:53:07.978Z,65536
2017-04-26T13:54:09.796Z,31416
2017-04-26T13:55:11.615Z,19985
2017-04-26T13:56:13.432Z,65536
2017-04-26T13:57:15.246Z,65536
2017-04-26T13:58:17.068Z,26741
2017-04-26T13:59:18.881Z,14003